Terminal Aerodrome Forecast
Issued by NWS

Home | Current Version | Previous Version | Text Only | Print | Product List | Glossary On
Versions: 1 2 3 4 5 6 7 8 9 10 11 12 13 14 15
000
FTUS41 KCLE 241121
TAFFDY
TAF
KFDY 241121Z 2412/2512 22015KT P6SM BKN015 OVC040
      TEMPO 2412/2415 5SM -SHRA OVC015
     FM241500 22015G25KT P6SM VCSH BKN025
     FM241700 22015G25KT P6SM BKN035
     FM250200 24015KT 6SM -SHRA OVC020
     FM250800 24012KT P6SM OVC030=

USA.gov is the U.S. government's official web portal to all federal, state and local government web resources and services.